createdAt,value
2022-12-08T00:00:29.036Z,41.30
2022-12-08T00:05:49.872Z,38.73
2022-12-08T00:10:51.985Z,34.00
2022-12-08T00:16:00.765Z,39.47
2022-12-08T00:21:03.156Z,49.33
2022-12-08T00:26:05.573Z,44.67
2022-12-08T00:31:10.451Z,41.20
2022-12-08T00:36:14.626Z,37.22
2022-12-08T00:41:39.964Z,37.88
2022-12-08T00:46:42.498Z,37.47
2022-12-08T00:51:44.824Z,37.83
2022-12-08T00:56:46.971Z,38.87
2022-12-08T01:01:49.161Z,40.03
2022-12-08T01:06:51.596Z,39.00
2022-12-08T01:11:53.705Z,42.13
2022-12-08T01:16:55.880Z,41.00
2022-12-08T01:21:58.083Z,39.03
2022-12-08T01:27:00.163Z,42.88
2022-12-08T01:32:02.483Z,46.28
2022-12-08T01:37:04.570Z,44.50
2022-12-08T01:42:10.198Z,45.03
2022-12-08T01:47:12.373Z,47.23
2022-12-08T01:52:20.563Z,45.58
2022-12-08T01:57:34.027Z,47.97
2022-12-08T02:02:49.615Z,45.90
2022-12-08T02:07:52.264Z,49.30
2022-12-08T02:12:58.164Z,45.30
2022-12-08T02:18:19.744Z,46.55
2022-12-08T02:23:45.378Z,52.83
2022-12-08T02:29:02.567Z,50.33
2022-12-08T02:34:10.643Z,55.17
2022-12-08T02:39:54.312Z,53.30
2022-12-08T02:45:11.902Z,58.17
2022-12-08T02:50:15.649Z,52.95
2022-12-08T02:55:28.064Z,49.10
2022-12-08T03:00:53.539Z,53.92
2022-12-08T03:06:01.523Z,52.53
2022-12-08T03:11:20.410Z,47.55
2022-12-08T03:16:27.428Z,52.05
2022-12-08T03:21:32.920Z,49.03
2022-12-08T03:26:43.773Z,48.45
2022-12-08T03:31:56.146Z,51.63
2022-12-08T03:37:00.960Z,48.42
2022-12-08T03:42:03.091Z,52.67
2022-12-08T03:47:05.233Z,50.70
2022-12-08T03:52:07.304Z,52.72
2022-12-08T03:57:09.464Z,48.20
2022-12-08T04:02:11.601Z,51.53
2022-12-08T04:07:13.738Z,47.78
2022-12-08T04:12:15.888Z,48.33
2022-12-08T04:17:17.958Z,49.40
2022-12-08T04:22:20.090Z,50.20
2022-12-08T04:27:22.262Z,50.65
2022-12-08T04:32:24.336Z,49.55
2022-12-08T04:37:27.819Z,44.23
2022-12-08T04:42:30.004Z,49.92
2022-12-08T04:47:32.274Z,43.43
2022-12-08T04:52:34.699Z,47.55
2022-12-08T04:57:36.841Z,45.70
2022-12-08T05:02:39.277Z,43.37
2022-12-08T05:07:41.409Z,46.92
2022-12-08T05:12:43.552Z,46.70
2022-12-08T05:17:45.678Z,42.22
2022-12-08T05:22:47.977Z,43.85
2022-12-08T05:27:50.150Z,42.50
2022-12-08T05:32:56.657Z,46.00
2022-12-08T05:37:58.984Z,43.20
2022-12-08T05:43:01.122Z,45.47
2022-12-08T05:48:03.417Z,43.97
2022-12-08T05:53:05.715Z,43.63
2022-12-08T05:58:13.704Z,48.45
2022-12-08T06:03:18.602Z,45.03
2022-12-08T06:08:20.827Z,46.30
2022-12-08T06:13:23.024Z,48.25
2022-12-08T06:18:32.809Z,51.60
2022-12-08T06:23:35.559Z,47.53
2022-12-08T06:28:38.097Z,46.93
2022-12-08T06:33:40.492Z,45.28
2022-12-08T06:38:43.942Z,48.97
2022-12-08T06:43:46.546Z,44.03
2022-12-08T06:48:50.749Z,45.42
2022-12-08T06:53:52.963Z,46.23
2022-12-08T06:58:55.262Z,45.17
2022-12-08T07:03:57.461Z,47.45
2022-12-08T07:08:59.640Z,48.33
2022-12-08T07:14:01.831Z,40.55
2022-12-08T07:19:03.957Z,44.50
2022-12-08T07:24:06.333Z,41.15
2022-12-08T07:29:10.360Z,41.37
2022-12-08T07:34:13.096Z,45.67
2022-12-08T07:39:15.426Z,48.45
2022-12-08T07:44:17.753Z,43.07
2022-12-08T07:49:19.867Z,49.65
2022-12-08T07:54:22.077Z,47.10
2022-12-08T07:59:24.565Z,55.23
2022-12-08T08:04:26.776Z,56.10
2022-12-08T08:09:28.897Z,51.43
2022-12-08T08:14:31.154Z,55.72
2022-12-08T08:19:33.255Z,51.65
2022-12-08T08:24:37.239Z,51.53
2022-12-08T08:29:42.478Z,46.95
2022-12-08T08:34:44.595Z,49.67
2022-12-08T08:39:46.749Z,48.92
2022-12-08T08:44:48.915Z,51.85
2022-12-08T08:49:51.036Z,49.67
2022-12-08T08:54:53.145Z,47.22
2022-12-08T08:59:55.323Z,47.97
2022-12-08T09:04:57.524Z,45.08
2022-12-08T09:10:01.909Z,43.13
2022-12-08T09:15:05.781Z,41.30
2022-12-08T09:20:08.558Z,43.97
2022-12-08T09:25:10.698Z,47.93
2022-12-08T09:30:13.113Z,43.00
2022-12-08T09:35:15.316Z,40.67
2022-12-08T09:40:20.201Z,47.00
2022-12-08T09:45:24.746Z,45.40
2022-12-08T09:50:37.972Z,43.83
2022-12-08T09:55:48.774Z,44.03
2022-12-08T10:00:51.155Z,47.72
2022-12-08T10:06:10.970Z,51.03
2022-12-08T10:11:24.621Z,50.15
2022-12-08T10:16:42.327Z,50.87
2022-12-08T10:21:45.236Z,44.28
2022-12-08T10:26:47.625Z,43.60
2022-12-08T10:31:49.778Z,39.87
2022-12-08T10:36:58.135Z,43.58
2022-12-08T10:42:02.801Z,42.57
2022-12-08T10:47:13.430Z,40.80
2022-12-08T10:52:25.299Z,42.42
2022-12-08T10:57:27.415Z,41.47
2022-12-08T11:02:29.757Z,40.45
2022-12-08T11:07:32.062Z,34.93
2022-12-08T11:12:36.210Z,36.45
2022-12-08T11:17:41.533Z,35.75
2022-12-08T11:22:45.763Z,37.20
2022-12-08T11:27:50.404Z,32.10
2022-12-08T11:33:00.078Z,30.27
2022-12-08T11:38:20.510Z,32.03
2022-12-08T11:43:48.651Z,29.75
2022-12-08T11:49:05.953Z,27.73
2022-12-08T11:54:17.748Z,26.75
2022-12-08T11:59:26.429Z,22.30
2022-12-08T12:05:02.348Z,26.55
2022-12-08T12:10:23.052Z,22.83
2022-12-08T12:15:46.564Z,22.93
2022-12-08T12:20:51.651Z,22.45
2022-12-08T12:26:02.563Z,22.87
2022-12-08T12:31:16.318Z,22.40
2022-12-08T12:36:18.792Z,21.85
2022-12-08T12:41:28.058Z,24.03
2022-12-08T12:46:38.335Z,21.95
2022-12-08T12:51:47.764Z,20.27
2022-12-08T12:56:53.488Z,21.05
2022-12-08T13:01:56.688Z,21.50
2022-12-08T13:07:00.005Z,41.27
2022-12-08T13:12:10.467Z,40.45
2022-12-08T13:17:16.536Z,40.67
2022-12-08T13:22:46.738Z,36.67
2022-12-08T13:27:54.101Z,38.75
2022-12-08T13:33:18.479Z,34.83
2022-12-08T13:38:26.496Z,28.17
2022-12-08T13:44:20.102Z,23.57
2022-12-08T13:51:15.964Z,23.05
2022-12-08T13:55:26.857Z,26.08
2022-12-08T14:00:13.842Z,22.17
2022-12-08T14:05:20.393Z,25.23
2022-12-08T14:10:32.201Z,24.27
2022-12-08T14:15:38.171Z,21.87
2022-12-08T14:21:12.220Z,26.58
2022-12-08T14:26:06.597Z,32.50
2022-12-08T14:31:09.152Z,29.60
2022-12-08T14:36:15.807Z,32.53
2022-12-08T14:41:27.867Z,33.95
2022-12-08T14:46:30.171Z,33.13
2022-12-08T14:51:33.350Z,33.00
2022-12-08T14:56:43.439Z,29.90
2022-12-08T15:01:48.807Z,32.13
2022-12-08T15:06:59.470Z,32.83
2022-12-08T15:12:07.538Z,32.25
2022-12-08T15:17:30.181Z,29.97
2022-12-08T15:22:32.477Z,30.85
2022-12-08T15:27:42.368Z,35.03
2022-12-08T15:32:52.840Z,40.60
2022-12-08T15:37:54.934Z,31.95
2022-12-08T15:42:57.072Z,26.47
2022-12-08T15:47:59.175Z,29.05
2022-12-08T15:53:01.326Z,29.87
2022-12-08T15:58:51.841Z,31.00
2022-12-08T16:09:06.346Z,28.57
2022-12-08T16:15:22.923Z,34.50
2022-12-08T16:19:36.361Z,34.27
2022-12-08T16:24:38.433Z,30.15
2022-12-08T16:29:46.974Z,30.23
2022-12-08T16:34:50.202Z,30.87
2022-12-08T16:39:54.798Z,28.98
2022-12-08T16:44:56.928Z,29.70
2022-12-08T16:49:59.099Z,28.10
2022-12-08T16:55:01.654Z,29.48
2022-12-08T17:00:07.436Z,31.27
2022-12-08T17:05:13.949Z,31.73
2022-12-08T17:10:19.280Z,29.87
2022-12-08T17:15:24.216Z,27.35
2022-12-08T17:20:28.418Z,27.05
2022-12-08T17:25:30.607Z,27.83
2022-12-08T17:30:32.722Z,28.10
2022-12-08T17:35:35.988Z,31.83
2022-12-08T17:40:38.180Z,29.58
2022-12-08T17:45:44.776Z,29.92
2022-12-08T17:50:47.927Z,26.27
2022-12-08T17:55:54.987Z,30.37
2022-12-08T18:00:57.138Z,26.80
2022-12-08T18:06:08.168Z,27.00
2022-12-08T18:11:21.144Z,27.65
2022-12-08T18:16:26.851Z,26.30
2022-12-08T18:21:29.302Z,28.00
2022-12-08T18:26:31.939Z,26.17
2022-12-08T18:31:34.207Z,24.87
2022-12-08T18:36:36.391Z,25.80
2022-12-08T18:41:38.537Z,24.87
2022-12-08T18:46:40.803Z,28.75
2022-12-08T18:51:43.960Z,23.83
2022-12-08T18:56:46.076Z,29.70
2022-12-08T19:01:48.647Z,29.60
2022-12-08T19:06:51.425Z,26.97
2022-12-08T19:11:53.614Z,25.85
2022-12-08T19:16:57.647Z,27.60
2022-12-08T19:21:59.849Z,25.70
2022-12-08T19:27:05.865Z,25.77
2022-12-08T19:32:08.054Z,27.00
2022-12-08T19:37:12.586Z,26.20
2022-12-08T19:42:37.496Z,27.80
2022-12-08T19:47:40.166Z,28.80
2022-12-08T19:52:43.140Z,28.00
2022-12-08T19:57:45.227Z,26.97
2022-12-08T20:02:47.845Z,27.67
2022-12-08T20:07:50.709Z,26.63
2022-12-08T20:13:12.858Z,30.12
2022-12-08T20:18:16.097Z,27.98
2022-12-08T20:23:20.295Z,28.87
2022-12-08T20:28:23.763Z,28.45
2022-12-08T20:33:26.342Z,27.53
2022-12-08T20:38:29.206Z,31.40
2022-12-08T20:43:31.321Z,29.48
2022-12-08T20:48:33.714Z,29.30
2022-12-08T20:53:35.802Z,28.15
2022-12-08T20:58:37.954Z,31.40
2022-12-08T21:03:40.491Z,34.20
2022-12-08T21:08:42.994Z,35.45
2022-12-08T21:13:45.720Z,38.43
2022-12-08T21:18:47.871Z,40.83
2022-12-08T21:23:54.198Z,31.00
2022-12-08T21:28:58.906Z,31.08
2022-12-08T21:34:02.174Z,33.08
2022-12-08T21:39:11.220Z,32.13
2022-12-08T21:44:15.604Z,31.52
2022-12-08T21:49:20.828Z,29.67
2022-12-08T21:54:23.037Z,31.25
2022-12-08T21:59:25.191Z,33.13
2022-12-08T22:04:28.039Z,33.37
2022-12-08T22:09:30.547Z,31.77
2022-12-08T22:14:32.989Z,33.83
2022-12-08T22:19:35.548Z,33.53
2022-12-08T22:24:37.846Z,33.15
2022-12-08T22:29:39.975Z,30.53
2022-12-08T22:34:42.204Z,33.90
2022-12-08T22:39:44.382Z,32.13
2022-12-08T22:44:46.737Z,32.42
2022-12-08T22:49:49.285Z,31.45
2022-12-08T22:54:51.366Z,32.10
2022-12-08T22:59:53.724Z,32.40
2022-12-08T23:04:56.881Z,31.40
2022-12-08T23:10:02.217Z,34.40
2022-12-08T23:15:05.061Z,33.78
2022-12-08T23:20:08.553Z,34.63
2022-12-08T23:25:10.880Z,34.55
2022-12-08T23:30:14.008Z,37.33
2022-12-08T23:35:16.230Z,35.45
2022-12-08T23:40:18.348Z,35.45
2022-12-08T23:45:20.475Z,39.33
2022-12-08T23:50:22.971Z,34.70
2022-12-08T23:55:25.153Z,35.53
